createdAt,value
2017-07-16T00:00:38.459Z,0
2017-07-16T00:01:19.353Z,0
2017-07-16T00:02:00.246Z,0
2017-07-16T00:02:41.132Z,0
2017-07-16T00:03:22.028Z,0
2017-07-16T00:04:02.923Z,0
2017-07-16T00:04:43.805Z,0
2017-07-16T00:05:24.705Z,0
2017-07-16T00:06:05.596Z,0
2017-07-16T00:06:46.486Z,0
2017-07-16T00:07:27.380Z,0
2017-07-16T00:08:08.267Z,0
2017-07-16T00:08:49.162Z,0
2017-07-16T00:09:30.055Z,0
2017-07-16T00:10:10.949Z,0
2017-07-16T00:10:51.836Z,0
2017-07-16T00:11:32.731Z,0
2017-07-16T00:12:13.641Z,0
2017-07-16T00:12:54.507Z,0
2017-07-16T00:13:35.399Z,0
2017-07-16T00:14:16.292Z,0
2017-07-16T00:14:57.182Z,0
2017-07-16T00:15:38.076Z,0
2017-07-16T00:16:18.965Z,0
2017-07-16T00:16:59.851Z,0
2017-07-16T00:17:40.740Z,0
2017-07-16T00:18:21.631Z,0
2017-07-16T00:19:02.525Z,0
2017-07-16T00:19:43.416Z,0
2017-07-16T00:20:24.308Z,0
2017-07-16T00:21:05.246Z,0
2017-07-16T00:21:46.137Z,0
2017-07-16T00:22:27.032Z,0
2017-07-16T00:23:07.918Z,0
2017-07-16T00:23:48.818Z,0
2017-07-16T00:24:29.705Z,0
2017-07-16T00:25:10.604Z,0
2017-07-16T00:25:51.490Z,0
2017-07-16T00:26:32.382Z,0
2017-07-16T00:27:13.280Z,0
2017-07-16T00:27:54.165Z,0
2017-07-16T00:28:35.070Z,0
2017-07-16T00:29:15.960Z,0
2017-07-16T00:29:56.847Z,0
2017-07-16T00:30:37.734Z,0
2017-07-16T00:31:18.622Z,0
2017-07-16T00:31:59.514Z,0
2017-07-16T00:32:40.404Z,0
2017-07-16T00:33:21.312Z,0
2017-07-16T00:34:02.194Z,0
2017-07-16T00:34:43.091Z,0
2017-07-16T00:35:23.964Z,0
2017-07-16T00:36:04.873Z,0
2017-07-16T00:36:45.737Z,0
2017-07-16T00:37:26.614Z,0
2017-07-16T00:38:07.512Z,0
2017-07-16T00:38:48.402Z,0
2017-07-16T00:39:29.291Z,0
2017-07-16T00:40:10.178Z,0
2017-07-16T00:40:51.080Z,0
2017-07-16T00:41:31.965Z,0
2017-07-16T00:42:12.876Z,0
2017-07-16T00:42:53.760Z,0
2017-07-16T00:43:34.645Z,0
2017-07-16T00:44:15.522Z,0
2017-07-16T00:44:56.409Z,0
2017-07-16T00:45:37.297Z,0
2017-07-16T00:46:18.180Z,0
2017-07-16T00:46:59.074Z,0
2017-07-16T00:47:39.960Z,0
2017-07-16T00:48:20.842Z,0
2017-07-16T00:49:01.729Z,0
2017-07-16T00:49:42.616Z,0
2017-07-16T00:50:23.501Z,0
2017-07-16T00:51:04.382Z,0
2017-07-16T00:51:45.263Z,0
2017-07-16T00:52:26.153Z,0
2017-07-16T00:53:07.051Z,0
2017-07-16T00:53:47.945Z,0
2017-07-16T00:54:28.838Z,0
2017-07-16T00:55:09.729Z,0
2017-07-16T00:55:50.607Z,0
2017-07-16T00:56:31.494Z,0
2017-07-16T00:57:12.392Z,0
2017-07-16T00:57:53.283Z,0
2017-07-16T00:58:34.175Z,0
2017-07-16T00:59:15.079Z,0
2017-07-16T00:59:55.950Z,0
2017-07-16T01:00:36.843Z,0
2017-07-16T01:01:17.717Z,0
2017-07-16T01:01:58.610Z,0
2017-07-16T01:02:39.497Z,0
2017-07-16T01:03:20.386Z,0
2017-07-16T01:04:01.291Z,0
2017-07-16T01:04:42.176Z,0
2017-07-16T01:05:23.065Z,0
2017-07-16T01:06:03.952Z,0
2017-07-16T01:06:44.849Z,0
2017-07-16T01:07:25.743Z,0
2017-07-16T01:08:06.624Z,0
2017-07-16T01:08:47.505Z,0
2017-07-16T01:09:28.405Z,0
2017-07-16T01:10:09.299Z,0
2017-07-16T01:10:50.196Z,0
2017-07-16T01:11:31.081Z,0
2017-07-16T01:12:11.964Z,0
2017-07-16T01:12:52.856Z,0
2017-07-16T01:13:33.742Z,0
2017-07-16T01:14:14.629Z,0
2017-07-16T01:14:55.510Z,0
2017-07-16T01:15:36.398Z,0
2017-07-16T01:16:17.289Z,0
2017-07-16T01:16:58.160Z,0
2017-07-16T01:17:39.044Z,0
2017-07-16T01:18:19.930Z,0
2017-07-16T01:19:00.814Z,0
2017-07-16T01:19:41.713Z,0
2017-07-16T01:20:22.601Z,0
2017-07-16T01:21:03.482Z,0
2017-07-16T01:21:44.371Z,0
2017-07-16T01:22:25.262Z,0
2017-07-16T01:23:06.157Z,0
2017-07-16T01:23:47.047Z,0
2017-07-16T01:24:27.929Z,0
2017-07-16T01:25:08.828Z,0
2017-07-16T01:25:49.696Z,0
2017-07-16T01:26:30.588Z,0
2017-07-16T01:27:11.473Z,0
2017-07-16T01:27:52.368Z,0
2017-07-16T01:28:33.258Z,0
2017-07-16T01:29:14.150Z,0
2017-07-16T01:29:55.041Z,0
2017-07-16T01:30:35.923Z,0
2017-07-16T01:31:16.822Z,0
2017-07-16T01:31:57.719Z,0
2017-07-16T01:32:38.607Z,0
2017-07-16T01:33:19.501Z,0
2017-07-16T01:34:00.390Z,0
2017-07-16T01:34:41.270Z,0
2017-07-16T01:35:22.156Z,0
2017-07-16T01:36:03.048Z,0
2017-07-16T01:36:43.942Z,0
2017-07-16T01:37:24.828Z,0
2017-07-16T01:38:05.717Z,0
2017-07-16T01:38:46.612Z,0
2017-07-16T01:39:27.494Z,0
2017-07-16T01:40:08.402Z,0
2017-07-16T01:40:49.292Z,0
2017-07-16T01:41:30.185Z,0
2017-07-16T01:42:11.071Z,0
2017-07-16T01:42:51.960Z,0
2017-07-16T01:43:32.852Z,0
2017-07-16T01:44:13.743Z,0
2017-07-16T01:44:54.654Z,0
2017-07-16T01:45:35.538Z,0
2017-07-16T01:46:16.424Z,0
2017-07-16T01:46:57.310Z,0
2017-07-16T01:47:38.204Z,0
2017-07-16T01:48:19.147Z,0
2017-07-16T01:49:00.029Z,0
2017-07-16T01:49:40.940Z,0
2017-07-16T01:50:21.829Z,0
2017-07-16T01:51:02.723Z,0
2017-07-16T01:51:43.637Z,0
2017-07-16T01:53:22.032Z,0
2017-07-16T01:54:02.924Z,0
2017-07-16T01:54:43.817Z,0
2017-07-16T01:55:24.693Z,0
2017-07-16T01:56:05.580Z,0
2017-07-16T01:56:46.466Z,0
2017-07-16T01:57:27.347Z,0
2017-07-16T01:58:08.232Z,0
2017-07-16T01:58:49.122Z,0
2017-07-16T01:59:30.017Z,0
2017-07-16T02:00:10.906Z,0
2017-07-16T02:00:51.793Z,0
2017-07-16T02:01:32.698Z,0
2017-07-16T02:02:13.573Z,0
2017-07-16T02:02:54.465Z,0
2017-07-16T02:03:35.367Z,0
2017-07-16T02:04:16.255Z,0
2017-07-16T02:04:57.142Z,0
2017-07-16T02:05:38.028Z,0
2017-07-16T02:06:18.921Z,0
2017-07-16T02:06:59.850Z,0
2017-07-16T02:07:40.704Z,0
2017-07-16T02:08:21.592Z,0
2017-07-16T02:09:02.476Z,0
2017-07-16T02:09:43.362Z,0
2017-07-16T02:10:24.257Z,0
2017-07-16T02:11:05.152Z,0
2017-07-16T02:11:46.031Z,0
2017-07-16T02:12:26.920Z,0
2017-07-16T02:13:07.804Z,0
2017-07-16T02:13:48.707Z,0
2017-07-16T02:14:29.606Z,0
2017-07-16T02:15:10.490Z,0
2017-07-16T02:15:51.380Z,0
2017-07-16T02:16:32.266Z,0
2017-07-16T02:17:13.167Z,4
2017-07-16T02:17:54.066Z,4
2017-07-16T02:18:34.961Z,4
2017-07-16T02:19:15.837Z,4
2017-07-16T02:19:56.725Z,4
2017-07-16T02:20:37.611Z,0
2017-07-16T02:21:18.505Z,0
2017-07-16T02:21:59.387Z,0
2017-07-16T02:22:40.270Z,4
2017-07-16T02:23:21.153Z,4
2017-07-16T02:24:02.052Z,4
2017-07-16T02:24:42.938Z,4
2017-07-16T02:25:23.831Z,4
2017-07-16T02:26:04.716Z,4
2017-07-16T02:26:45.609Z,4
2017-07-16T02:27:26.492Z,4
2017-07-16T02:28:07.387Z,8
2017-07-16T02:28:48.280Z,4
2017-07-16T02:29:29.166Z,4
2017-07-16T02:30:10.047Z,8
2017-07-16T02:30:50.957Z,4
2017-07-16T02:31:31.826Z,8
2017-07-16T02:32:12.708Z,8
2017-07-16T02:32:53.590Z,8
2017-07-16T02:33:34.478Z,8
2017-07-16T02:34:15.403Z,8
2017-07-16T02:34:56.295Z,12
2017-07-16T02:35:37.184Z,12
2017-07-16T02:36:18.066Z,12
2017-07-16T02:36:58.952Z,16
2017-07-16T02:37:39.847Z,16
2017-07-16T02:38:20.745Z,16
2017-07-16T02:39:01.618Z,16
2017-07-16T02:39:42.515Z,20
2017-07-16T02:40:23.390Z,20
2017-07-16T02:41:04.275Z,20
2017-07-16T02:41:45.157Z,24
2017-07-16T02:42:26.060Z,28
2017-07-16T02:43:06.943Z,24
2017-07-16T02:43:47.829Z,28
2017-07-16T02:44:28.716Z,32
2017-07-16T02:45:09.604Z,32
2017-07-16T02:45:50.485Z,36
2017-07-16T02:46:31.368Z,36
2017-07-16T02:47:12.260Z,40
2017-07-16T02:47:53.133Z,44
2017-07-16T02:48:34.031Z,48
2017-07-16T02:49:14.920Z,52
2017-07-16T02:49:55.800Z,56
2017-07-16T02:50:36.688Z,56
2017-07-16T02:51:17.582Z,60
2017-07-16T02:51:58.458Z,68
2017-07-16T02:52:39.339Z,72
2017-07-16T02:53:20.233Z,76
2017-07-16T02:54:01.133Z,76
2017-07-16T02:54:42.004Z,84
2017-07-16T02:55:22.892Z,88
2017-07-16T02:56:03.779Z,92
2017-07-16T02:56:44.675Z,100
2017-07-16T02:57:25.554Z,104
2017-07-16T02:58:06.465Z,112
2017-07-16T02:58:47.343Z,116
2017-07-16T02:59:28.230Z,128
2017-07-16T03:00:09.117Z,132
2017-07-16T03:00:50.008Z,140
2017-07-16T03:01:30.892Z,148
2017-07-16T03:02:11.783Z,156
2017-07-16T03:02:52.671Z,160
2017-07-16T03:03:33.560Z,168
2017-07-16T03:04:14.448Z,176
2017-07-16T03:04:55.339Z,188
2017-07-16T03:05:36.225Z,196
2017-07-16T03:06:17.107Z,204
2017-07-16T03:06:57.998Z,212
2017-07-16T03:07:38.898Z,220
2017-07-16T03:08:19.773Z,232
2017-07-16T03:09:00.659Z,244
2017-07-16T03:09:41.548Z,252
2017-07-16T03:10:22.437Z,264
2017-07-16T03:11:03.327Z,276
2017-07-16T03:11:44.201Z,284
2017-07-16T03:12:25.089Z,296
2017-07-16T03:13:05.994Z,308
2017-07-16T03:13:46.881Z,324
2017-07-16T03:14:27.789Z,332
2017-07-16T03:15:08.672Z,344
2017-07-16T03:15:49.556Z,360
2017-07-16T03:16:30.442Z,376
2017-07-16T03:17:11.333Z,388
2017-07-16T03:17:52.210Z,400
2017-07-16T03:18:33.117Z,412
2017-07-16T03:19:14.009Z,424
2017-07-16T03:19:54.879Z,440
2017-07-16T03:20:35.759Z,456
2017-07-16T03:21:16.649Z,468
2017-07-16T03:21:57.537Z,480
2017-07-16T03:22:38.414Z,496
2017-07-16T03:23:19.292Z,512
2017-07-16T03:24:00.190Z,528
2017-07-16T03:24:41.078Z,544
2017-07-16T03:25:21.974Z,560
2017-07-16T03:26:02.853Z,576
2017-07-16T03:26:43.745Z,596
2017-07-16T03:27:24.623Z,608
2017-07-16T03:28:05.504Z,628
2017-07-16T03:28:46.396Z,644
2017-07-16T03:29:27.292Z,664
2017-07-16T03:30:08.171Z,684
2017-07-16T03:30:49.066Z,704
2017-07-16T03:31:29.958Z,720
2017-07-16T03:32:10.834Z,740
2017-07-16T03:32:51.716Z,760
2017-07-16T03:33:32.625Z,776
2017-07-16T03:34:13.496Z,796
2017-07-16T03:34:54.383Z,816
2017-07-16T03:35:35.293Z,832
2017-07-16T03:36:16.190Z,852
2017-07-16T03:36:57.074Z,872
2017-07-16T03:37:37.969Z,896
2017-07-16T03:38:18.845Z,916
2017-07-16T03:38:59.720Z,932
2017-07-16T03:39:40.598Z,956
2017-07-16T03:40:21.504Z,972
2017-07-16T03:41:02.384Z,992
2017-07-16T03:41:43.269Z,1012
2017-07-16T03:42:24.159Z,1036
2017-07-16T03:43:05.042Z,1052
2017-07-16T03:43:45.919Z,1076
2017-07-16T03:44:26.804Z,1096
2017-07-16T03:45:07.697Z,1112
2017-07-16T03:45:48.583Z,1128
2017-07-16T03:46:29.453Z,1140
2017-07-16T03:47:10.342Z,1152
2017-07-16T03:47:51.239Z,1176
2017-07-16T03:48:32.126Z,1184
2017-07-16T03:49:13.009Z,1204
2017-07-16T03:49:53.897Z,1216
2017-07-16T03:50:34.784Z,1232
2017-07-16T03:51:15.664Z,1252
2017-07-16T03:51:56.564Z,1264
2017-07-16T03:52:37.457Z,1280
2017-07-16T03:53:18.342Z,1292
2017-07-16T03:53:59.230Z,1308
2017-07-16T03:54:40.108Z,1320
2017-07-16T03:55:20.995Z,1336
2017-07-16T03:56:01.876Z,1348
2017-07-16T03:56:42.759Z,1364
2017-07-16T03:57:23.648Z,1380
2017-07-16T03:58:04.542Z,1392
2017-07-16T03:58:45.422Z,1408
2017-07-16T03:59:26.315Z,1420
2017-07-16T04:00:07.211Z,1432
2017-07-16T04:00:48.091Z,1448
2017-07-16T04:01:28.968Z,1464
2017-07-16T04:02:09.856Z,1480
2017-07-16T04:02:50.745Z,1500
2017-07-16T04:03:31.627Z,1516
2017-07-16T04:04:12.507Z,1532
2017-07-16T04:04:53.437Z,1548
2017-07-16T04:05:34.314Z,1568
2017-07-16T04:07:12.714Z,1604
2017-07-16T04:07:53.603Z,1620
2017-07-16T04:08:34.502Z,1632
2017-07-16T04:09:15.436Z,1648
2017-07-16T04:09:56.288Z,1668
2017-07-16T04:10:37.177Z,1684
2017-07-16T04:11:18.062Z,1696
2017-07-16T04:11:58.952Z,1712
2017-07-16T04:12:39.842Z,1724
2017-07-16T04:13:20.729Z,1748
2017-07-16T04:14:01.618Z,1764
2017-07-16T04:14:42.504Z,1784
2017-07-16T04:15:23.392Z,1796
2017-07-16T04:17:38.555Z,1836
2017-07-16T04:18:19.446Z,1848
2017-07-16T04:19:00.336Z,1860
2017-07-16T04:19:41.234Z,1868
2017-07-16T04:20:22.123Z,1880
2017-07-16T04:21:03.012Z,1900
2017-07-16T04:21:43.912Z,1916
2017-07-16T04:22:24.785Z,1924
2017-07-16T04:23:05.664Z,1940
2017-07-16T04:23:46.575Z,1956
2017-07-16T04:24:27.462Z,1964
2017-07-16T04:25:08.336Z,1980
2017-07-16T04:25:49.210Z,1996
2017-07-16T04:26:30.106Z,2012
2017-07-16T04:27:10.993Z,2012
2017-07-16T04:27:51.875Z,2016
2017-07-16T04:28:32.760Z,2020
2017-07-16T04:29:13.656Z,2032
2017-07-16T04:29:54.532Z,2040
2017-07-16T04:30:35.400Z,2052
2017-07-16T04:31:16.286Z,2060
2017-07-16T04:31:57.185Z,2076
2017-07-16T04:32:38.066Z,2092
2017-07-16T04:33:18.944Z,2108
2017-07-16T04:33:59.844Z,2124
2017-07-16T04:34:40.734Z,2144
2017-07-16T04:35:21.610Z,2164
2017-07-16T04:36:02.500Z,2180
2017-07-16T04:36:43.376Z,2192
2017-07-16T04:37:24.261Z,2212
2017-07-16T04:38:05.166Z,2240
2017-07-16T04:38:46.057Z,2256
2017-07-16T04:39:26.947Z,2284
2017-07-16T04:40:07.816Z,2316
2017-07-16T04:40:48.708Z,2348
2017-07-16T04:41:29.606Z,2384
2017-07-16T04:42:10.496Z,2424
2017-07-16T04:42:51.397Z,2448
2017-07-16T04:43:32.293Z,2472
2017-07-16T04:44:13.171Z,2488
2017-07-16T04:44:54.058Z,2512
2017-07-16T04:45:34.955Z,2540
2017-07-16T04:46:15.829Z,2580
2017-07-16T04:46:56.755Z,2608
2017-07-16T04:47:37.638Z,2620
2017-07-16T04:48:18.546Z,2676
2017-07-16T04:48:59.452Z,2688
2017-07-16T04:49:40.328Z,2680
2017-07-16T04:50:21.209Z,2748
2017-07-16T04:51:02.116Z,2788
2017-07-16T04:51:43.007Z,2808
2017-07-16T04:52:23.887Z,2824
2017-07-16T04:53:04.785Z,2832
2017-07-16T04:53:45.674Z,2844
2017-07-16T04:54:26.552Z,2856
2017-07-16T04:55:07.443Z,2884
2017-07-16T04:55:48.336Z,2928
2017-07-16T04:56:29.214Z,2964
2017-07-16T04:57:10.100Z,2996
2017-07-16T04:57:50.995Z,3008
2017-07-16T04:58:31.875Z,3000
2017-07-16T04:59:12.757Z,2992
2017-07-16T04:59:53.649Z,2984
2017-07-16T05:00:34.532Z,2988
2017-07-16T05:01:15.413Z,2992
2017-07-16T05:01:56.292Z,2992
2017-07-16T05:02:37.178Z,2996
2017-07-16T05:03:18.089Z,2992
2017-07-16T05:03:58.958Z,2984
2017-07-16T05:04:39.829Z,2980
2017-07-16T05:05:20.725Z,2992
2017-07-16T05:06:01.618Z,3008
2017-07-16T05:06:42.502Z,3028
2017-07-16T05:07:23.393Z,3040
2017-07-16T05:08:04.288Z,3060
2017-07-16T05:08:45.178Z,3076
2017-07-16T05:09:26.070Z,3096
2017-07-16T05:10:06.952Z,3116
2017-07-16T05:10:47.839Z,3140
2017-07-16T05:11:28.718Z,3164
2017-07-16T05:12:09.618Z,3184
2017-07-16T05:12:50.504Z,3200
2017-07-16T05:13:31.391Z,3232
2017-07-16T05:14:12.273Z,3260
2017-07-16T05:14:53.161Z,3288
2017-07-16T05:15:34.062Z,3308
2017-07-16T05:16:14.955Z,3328
2017-07-16T05:16:55.846Z,3356
2017-07-16T05:17:36.726Z,3380
2017-07-16T05:18:17.634Z,3408
2017-07-16T05:18:58.525Z,3440
2017-07-16T05:19:39.416Z,3472
2017-07-16T05:20:20.309Z,3488
2017-07-16T05:21:01.197Z,3504
2017-07-16T05:21:42.094Z,3516
2017-07-16T05:22:22.996Z,3528
2017-07-16T05:23:03.887Z,3548
2017-07-16T05:23:44.775Z,3576
2017-07-16T05:24:25.677Z,3608
2017-07-16T05:25:06.565Z,3636
2017-07-16T05:25:47.465Z,3668
2017-07-16T05:26:28.360Z,3700
2017-07-16T05:27:09.247Z,3740
2017-07-16T05:27:50.148Z,3768
2017-07-16T05:28:31.042Z,3800
2017-07-16T05:29:11.928Z,3836
2017-07-16T05:29:52.815Z,3868
2017-07-16T05:30:33.707Z,3904
2017-07-16T05:31:14.597Z,3932
2017-07-16T05:31:55.481Z,3964
2017-07-16T05:32:36.371Z,3964
2017-07-16T05:33:17.265Z,3912
2017-07-16T05:33:58.155Z,3648
2017-07-16T05:34:39.043Z,3372
2017-07-16T05:35:19.973Z,3440
2017-07-16T05:36:00.821Z,3372
2017-07-16T05:36:41.738Z,3700
2017-07-16T05:37:22.618Z,4100
2017-07-16T05:38:03.509Z,4232
2017-07-16T05:38:44.420Z,4320
2017-07-16T05:39:25.311Z,4348
2017-07-16T05:40:06.191Z,4348
2017-07-16T05:40:47.090Z,4384
2017-07-16T05:41:27.976Z,4348
2017-07-16T05:42:08.864Z,4476
2017-07-16T05:42:49.739Z,4524
2017-07-16T05:43:30.631Z,4592
2017-07-16T05:44:11.522Z,4648
2017-07-16T05:44:52.416Z,4708
2017-07-16T05:45:33.314Z,4768
2017-07-16T05:46:14.198Z,4812
2017-07-16T05:46:55.091Z,4864
2017-07-16T05:47:35.979Z,4908
2017-07-16T05:48:16.863Z,4948
2017-07-16T05:48:57.754Z,4984
2017-07-16T05:49:38.655Z,5028
2017-07-16T05:50:19.539Z,5104
2017-07-16T05:51:00.448Z,5148
2017-07-16T05:51:41.351Z,5196
2017-07-16T05:52:22.241Z,5228
2017-07-16T05:53:03.125Z,5292
2017-07-16T05:53:44.021Z,5352
2017-07-16T05:54:25.120Z,5432
2017-07-16T06:13:47.523Z,14656
2017-07-16T06:14:28.423Z,15016
2017-07-16T06:15:09.319Z,15236
2017-07-16T06:15:50.218Z,15148
2017-07-16T06:16:31.122Z,14828
2017-07-16T06:17:12.023Z,14592
2017-07-16T06:17:52.915Z,14312
2017-07-16T06:18:33.801Z,14236
2017-07-16T06:19:14.697Z,14376
2017-07-16T06:19:55.590Z,15904
2017-07-16T06:20:36.479Z,262140
2017-07-16T06:21:17.386Z,262140
2017-07-16T06:21:58.275Z,16512
2017-07-16T06:22:39.173Z,16640
2017-07-16T06:23:20.094Z,17056
2017-07-16T06:24:00.978Z,17024
2017-07-16T06:24:41.880Z,262140
2017-07-16T06:25:22.772Z,262140
2017-07-16T06:26:03.667Z,262140
2017-07-16T06:26:44.557Z,15024
2017-07-16T06:27:25.452Z,14288
2017-07-16T06:28:06.347Z,13540
2017-07-16T06:28:47.241Z,13072
2017-07-16T06:29:28.143Z,12584
2017-07-16T06:30:09.037Z,12492
2017-07-16T06:30:49.930Z,12644
2017-07-16T06:31:30.824Z,12652
2017-07-16T06:32:11.724Z,12544
2017-07-16T06:32:52.622Z,12480
2017-07-16T06:33:33.524Z,12692
2017-07-16T06:34:14.421Z,12948
2017-07-16T06:34:55.317Z,13164
2017-07-16T06:35:36.220Z,13268
2017-07-16T06:36:17.123Z,13340
2017-07-16T06:36:58.027Z,13504
2017-07-16T06:37:38.955Z,13792
2017-07-16T06:38:19.856Z,14204
2017-07-16T06:39:00.752Z,14512
2017-07-16T06:39:41.655Z,14856
2017-07-16T06:40:22.548Z,15252
2017-07-16T06:41:03.458Z,15564
2017-07-16T06:41:44.342Z,16064
2017-07-16T06:42:25.241Z,16256
2017-07-16T06:43:06.143Z,16480
2017-07-16T06:43:47.041Z,16832
2017-07-16T06:44:27.942Z,17152
2017-07-16T06:45:08.844Z,17344
2017-07-16T06:45:49.744Z,17472
2017-07-16T06:46:30.638Z,17536
2017-07-16T06:47:11.554Z,17312
2017-07-16T06:47:52.451Z,17056
2017-07-16T06:48:33.349Z,16544
2017-07-16T06:49:14.246Z,16192
2017-07-16T06:49:55.150Z,15616
2017-07-16T06:50:36.042Z,15016
2017-07-16T06:51:16.949Z,14732
2017-07-16T06:51:57.854Z,14436
2017-07-16T06:52:38.763Z,14276
2017-07-16T06:53:19.657Z,14416
2017-07-16T06:54:00.551Z,14516
2017-07-16T06:54:41.447Z,14096
2017-07-16T06:55:22.359Z,13956
2017-07-16T06:56:03.260Z,14184
2017-07-16T06:56:44.165Z,13964
2017-07-16T06:57:25.059Z,13864
2017-07-16T06:58:05.950Z,13872
2017-07-16T06:58:46.848Z,14052
2017-07-16T06:59:27.749Z,14412
2017-07-16T07:00:08.654Z,14908
2017-07-16T07:00:49.567Z,15264
2017-07-16T07:01:30.480Z,15332
2017-07-16T07:02:11.371Z,15560
2017-07-16T07:02:52.274Z,15724
2017-07-16T07:03:33.173Z,16192
2017-07-16T07:04:14.068Z,16320
2017-07-16T07:04:54.961Z,16640
2017-07-16T07:05:35.862Z,16928
2017-07-16T07:06:16.774Z,16800
2017-07-16T07:06:57.680Z,16736
2017-07-16T07:07:38.582Z,16448
2017-07-16T07:08:19.481Z,16064
2017-07-16T07:09:00.372Z,15496
2017-07-16T07:09:41.272Z,15144
2017-07-16T07:10:22.162Z,14932
2017-07-16T07:11:03.060Z,14712
2017-07-16T07:11:43.963Z,14508
2017-07-16T07:12:24.868Z,14360
2017-07-16T07:13:05.760Z,14436
2017-07-16T07:13:46.654Z,14568
2017-07-16T07:14:27.559Z,14580
2017-07-16T07:15:08.460Z,14736
2017-07-16T07:15:49.372Z,14888
2017-07-16T07:16:30.277Z,15176
2017-07-16T07:17:11.179Z,15464
2017-07-16T07:17:52.108Z,16096
2017-07-16T07:18:33.008Z,16448
2017-07-16T07:19:13.915Z,16800
2017-07-16T07:19:54.823Z,17120
2017-07-16T07:20:35.715Z,17760
2017-07-16T07:21:16.625Z,17920
2017-07-16T07:21:57.521Z,18048
2017-07-16T07:22:38.423Z,19360
2017-07-16T07:23:19.322Z,21760
2017-07-16T07:24:00.225Z,24768
2017-07-16T07:24:41.127Z,23072
2017-07-16T07:25:22.022Z,22272
2017-07-16T07:26:02.928Z,22304
2017-07-16T07:26:43.833Z,22688
2017-07-16T07:27:24.730Z,23360
2017-07-16T07:28:05.627Z,25376
2017-07-16T07:28:46.529Z,27744
2017-07-16T07:29:27.427Z,27968
2017-07-16T07:30:08.363Z,29568
2017-07-16T07:30:49.264Z,26336
2017-07-16T07:31:30.166Z,26816
2017-07-16T07:32:11.059Z,28672
2017-07-16T07:32:51.965Z,29440
2017-07-16T07:33:32.864Z,31008
2017-07-16T07:34:13.763Z,29856
2017-07-16T07:34:54.669Z,28288
2017-07-16T07:35:35.553Z,25184
2017-07-16T07:36:16.451Z,26624
2017-07-16T07:36:57.349Z,28544
2017-07-16T07:37:38.247Z,31040
2017-07-16T07:38:19.152Z,29792
2017-07-16T07:39:00.048Z,29760
2017-07-16T07:39:40.954Z,29344
2017-07-16T07:40:21.869Z,30272
2017-07-16T07:41:02.794Z,30400
2017-07-16T07:41:43.703Z,31136
2017-07-16T07:42:24.601Z,31776
2017-07-16T07:43:05.493Z,32224
2017-07-16T07:43:46.393Z,28704
2017-07-16T07:44:27.295Z,27488
2017-07-16T07:45:08.197Z,29248
2017-07-16T07:45:49.106Z,32672
2017-07-16T07:46:30.009Z,32384
2017-07-16T07:47:10.913Z,32832
2017-07-16T07:47:51.807Z,31424
2017-07-16T07:48:32.708Z,31392
2017-07-16T07:50:26.387Z,28640
2017-07-16T07:51:07.311Z,29920
2017-07-16T07:51:48.191Z,28704
2017-07-16T07:52:29.082Z,28288
2017-07-16T07:53:09.989Z,26912
2017-07-16T07:53:50.900Z,31072
2017-07-16T07:54:31.796Z,27168
2017-07-16T07:55:12.691Z,37440
2017-07-16T07:55:53.604Z,25536
2017-07-16T07:56:34.491Z,24000
2017-07-16T07:57:15.396Z,27264
2017-07-16T07:57:56.300Z,20384
2017-07-16T07:58:37.206Z,20928
2017-07-16T07:59:18.113Z,20800
2017-07-16T07:59:59.012Z,23328
2017-07-16T08:00:39.917Z,22592
2017-07-16T08:01:20.818Z,24992
2017-07-16T08:02:01.725Z,23456
2017-07-16T08:02:42.615Z,25376
2017-07-16T08:03:23.523Z,26176
2017-07-16T08:04:04.411Z,25536
2017-07-16T08:04:45.308Z,25920
2017-07-16T08:05:26.239Z,26368
2017-07-16T08:06:07.129Z,25216
2017-07-16T08:06:48.029Z,25600
2017-07-16T08:07:28.932Z,26208
2017-07-16T08:08:09.836Z,25728
2017-07-16T08:08:50.781Z,25152
2017-07-16T08:09:31.682Z,24864
2017-07-16T08:10:12.593Z,25152
2017-07-16T08:10:53.483Z,26720
2017-07-16T08:11:34.407Z,26848
2017-07-16T08:12:15.300Z,26880
2017-07-16T08:12:56.205Z,25248
2017-07-16T08:13:37.114Z,24864
2017-07-16T08:14:18.017Z,20960
2017-07-16T08:14:58.926Z,20032
2017-07-16T08:15:39.829Z,19648
2017-07-16T08:16:20.731Z,20320
2017-07-16T08:17:01.645Z,24928
2017-07-16T08:17:42.560Z,27456
2017-07-16T08:18:23.474Z,33312
2017-07-16T08:19:04.380Z,52416
2017-07-16T08:19:45.281Z,54336
2017-07-16T08:20:26.186Z,37920
2017-07-16T08:21:07.089Z,44096
2017-07-16T08:21:47.986Z,48704
2017-07-16T08:22:28.899Z,53408
2017-07-16T08:23:09.801Z,56576
2017-07-16T08:23:50.704Z,47776
2017-07-16T08:24:31.608Z,58496
2017-07-16T08:25:12.513Z,60928
2017-07-16T08:25:53.414Z,61152
2017-07-16T08:26:34.315Z,47200
2017-07-16T08:27:15.227Z,50976
2017-07-16T08:27:56.121Z,61056
2017-07-16T08:28:37.045Z,65440
2017-07-16T08:29:17.941Z,75264
2017-07-16T08:29:58.868Z,76288
2017-07-16T08:30:39.761Z,79360
2017-07-16T08:31:20.671Z,74368
2017-07-16T08:32:01.572Z,59936
2017-07-16T08:32:42.484Z,64224
2017-07-16T08:33:23.387Z,56064
2017-07-16T08:34:04.302Z,75328
2017-07-16T08:34:45.214Z,89536
2017-07-16T08:35:26.120Z,62016
2017-07-16T08:36:07.025Z,36352
2017-07-16T08:36:47.956Z,44832
2017-07-16T08:37:28.867Z,46144
2017-07-16T08:38:09.774Z,50368
2017-07-16T08:38:50.672Z,46912
2017-07-16T08:39:31.587Z,43200
2017-07-16T08:40:12.486Z,61216
2017-07-16T08:40:53.382Z,37120
2017-07-16T08:41:34.295Z,30688
2017-07-16T08:42:15.194Z,33152
2017-07-16T08:42:56.096Z,31488
2017-07-16T08:43:37.004Z,28800
2017-07-16T08:44:17.909Z,28896
2017-07-16T08:44:58.829Z,27488
2017-07-16T08:45:39.726Z,26016
2017-07-16T08:46:20.633Z,31584
2017-07-16T08:47:01.536Z,24576
2017-07-16T08:47:42.451Z,23040
2017-07-16T08:48:23.352Z,20800
2017-07-16T08:49:04.253Z,17184
2017-07-16T08:49:45.162Z,17408
2017-07-16T08:50:26.059Z,20192
2017-07-16T08:51:06.972Z,20448
2017-07-16T08:51:47.872Z,53952
2017-07-16T08:52:28.789Z,32864
2017-07-16T08:53:09.695Z,29152
2017-07-16T08:53:50.630Z,30720
2017-07-16T08:54:31.525Z,23200
2017-07-16T08:55:12.454Z,30976
2017-07-16T08:55:53.362Z,55552
2017-07-16T08:56:34.263Z,39104
2017-07-16T08:57:15.166Z,53504
2017-07-16T08:57:56.086Z,59872
2017-07-16T08:58:36.968Z,26560
2017-07-16T08:59:17.875Z,22144
2017-07-16T08:59:58.793Z,71328
2017-07-16T09:00:39.683Z,19712
2017-07-16T09:01:20.584Z,18784
2017-07-16T09:02:01.488Z,19776
2017-07-16T09:02:42.395Z,21984
2017-07-16T09:03:23.298Z,45088
2017-07-16T09:04:04.209Z,30144
2017-07-16T09:04:45.106Z,36832
2017-07-16T09:05:26.009Z,48288
2017-07-16T09:06:06.912Z,44000
2017-07-16T09:06:47.817Z,71712
2017-07-16T09:07:28.715Z,81824
2017-07-16T09:08:09.617Z,68768
2017-07-16T09:08:50.524Z,64992
2017-07-16T09:09:31.430Z,60352
2017-07-16T09:10:12.340Z,45056
2017-07-16T09:10:53.251Z,40832
2017-07-16T09:11:34.242Z,31200
2017-07-16T09:12:15.145Z,49760
2017-07-16T09:12:56.058Z,56736
2017-07-16T09:13:36.959Z,63264
2017-07-16T09:14:17.878Z,66880
2017-07-16T09:14:58.781Z,55104
2017-07-16T09:15:39.692Z,59488
2017-07-16T09:16:20.603Z,69664
2017-07-16T09:17:01.511Z,41376
2017-07-16T09:17:42.412Z,29120
2017-07-16T09:18:23.329Z,31072
2017-07-16T09:19:04.233Z,32832
2017-07-16T09:19:45.134Z,32352
2017-07-16T09:20:26.040Z,32224
2017-07-16T09:21:06.954Z,32128
2017-07-16T09:21:47.858Z,28256
2017-07-16T09:22:28.760Z,29120
2017-07-16T09:23:09.668Z,27360
2017-07-16T09:23:50.564Z,24064
2017-07-16T09:24:31.466Z,22336
2017-07-16T09:25:12.369Z,21376
2017-07-16T09:25:53.273Z,21216
2017-07-16T09:26:34.163Z,22944
2017-07-16T09:27:15.064Z,22624
2017-07-16T09:27:55.969Z,23744
2017-07-16T09:28:36.872Z,23712
2017-07-16T09:29:17.791Z,23168
2017-07-16T09:29:58.686Z,22400
2017-07-16T09:30:39.577Z,21632
2017-07-16T09:31:20.473Z,21152
2017-07-16T09:32:01.378Z,20384
2017-07-16T09:32:42.285Z,19808
2017-07-16T09:33:23.178Z,19552
2017-07-16T09:34:04.068Z,19104
2017-07-16T09:34:44.968Z,18976
2017-07-16T09:35:25.874Z,18880
2017-07-16T09:36:06.778Z,18880
2017-07-16T09:36:47.680Z,19072
2017-07-16T09:37:28.584Z,19360
2017-07-16T09:38:09.486Z,20160
2017-07-16T09:38:50.409Z,20000
2017-07-16T09:39:31.303Z,20256